Terminal Aerodrome Forecast
Issued by NWS

Current Version | Previous Version | Text Only | Print | Product List | Glossary On
Versions: 1 2 3 4 5 6 7 8 9 10 11 12 13 14 15 16 17 18
000
FTUS42 KMLB 201100
TAFTIX
TAF
KTIX 201120Z 2012/2112 35012KT P6SM OVC012
     FM201500 35015G24KT P6SM BKN022 OVC035
     FM210100 36015G20KT P6SM SCT035=

USA.gov is the U.S. government's official web portal to all federal, state and local government web resources and services.